createdAt,value
2022-10-05T00:02:01.251Z,7.25
2022-10-05T00:04:45.554Z,7.13
2022-10-05T00:07:31.457Z,7.14
2022-10-05T00:10:17.800Z,7.06
2022-10-05T00:13:00.760Z,6.91
2022-10-05T00:15:45.629Z,6.92
2022-10-05T00:18:28.725Z,6.77
2022-10-05T00:21:20.659Z,6.75
2022-10-05T00:24:03.628Z,6.72
2022-10-05T00:26:46.833Z,6.72
2022-10-05T00:29:30.042Z,6.63
2022-10-05T00:32:14.686Z,6.67
2022-10-05T00:34:58.742Z,6.63
2022-10-05T00:37:42.573Z,6.57
2022-10-05T00:40:41.796Z,6.75
2022-10-05T00:43:42.853Z,6.77
2022-10-05T00:46:33.867Z,6.71
2022-10-05T00:49:30.795Z,6.80
2022-10-05T00:52:33.626Z,6.81
2022-10-05T00:55:26.361Z,6.80
2022-10-05T00:58:21.128Z,6.73
2022-10-05T01:01:10.748Z,6.81
2022-10-05T01:04:04.990Z,6.66
2022-10-05T01:07:00.750Z,6.65
2022-10-05T01:09:50.384Z,6.54
2022-10-05T01:12:42.398Z,6.51
2022-10-05T01:15:32.637Z,6.54
2022-10-05T01:18:22.493Z,6.57
2022-10-05T01:21:11.796Z,6.61
2022-10-05T01:24:37.595Z,6.64
2022-10-05T01:27:38.062Z,6.64
2022-10-05T01:30:23.110Z,6.69
2022-10-05T01:33:17.727Z,6.69
2022-10-05T01:36:08.576Z,6.64
2022-10-05T01:38:59.094Z,6.61
2022-10-05T01:41:50.477Z,6.63
2022-10-05T01:44:42.229Z,6.62
2022-10-05T01:47:38.224Z,6.60
2022-10-05T01:50:33.068Z,6.54
2022-10-05T01:53:29.215Z,6.57
2022-10-05T01:56:23.136Z,6.55
2022-10-05T01:59:18.911Z,6.53
2022-10-05T02:02:07.680Z,6.56
2022-10-05T02:05:01.829Z,6.58
2022-10-05T02:07:50.500Z,6.60
2022-10-05T02:10:38.402Z,6.59
2022-10-05T02:13:26.624Z,6.51
2022-10-05T02:16:16.811Z,6.53
2022-10-05T02:19:04.770Z,6.46
2022-10-05T02:21:53.221Z,6.30
2022-10-05T02:24:40.798Z,6.26
2022-10-05T02:27:28.610Z,6.25
2022-10-05T02:30:16.386Z,6.09
2022-10-05T02:33:03.887Z,6.02
2022-10-05T02:35:48.403Z,6.07
2022-10-05T02:38:41.814Z,6.06
2022-10-05T02:41:37.594Z,5.92
2022-10-05T02:44:29.781Z,5.97
2022-10-05T02:47:19.650Z,5.93
2022-10-05T02:50:13.438Z,5.84
2022-10-05T02:53:09.354Z,5.82
2022-10-05T02:56:05.084Z,5.82
2022-10-05T02:58:58.574Z,5.80
2022-10-05T03:01:48.559Z,5.78
2022-10-05T03:04:40.653Z,5.75
2022-10-05T03:07:28.816Z,5.75
2022-10-05T03:10:21.124Z,5.76
2022-10-05T03:13:10.495Z,5.69
2022-10-05T03:16:09.418Z,5.69
2022-10-05T03:19:06.300Z,5.64
2022-10-05T03:21:57.274Z,5.63
2022-10-05T03:24:51.330Z,5.64
2022-10-05T03:27:44.781Z,5.63
2022-10-05T03:30:32.851Z,5.63
2022-10-05T03:33:23.610Z,5.64
2022-10-05T03:36:16.615Z,5.54
2022-10-05T03:39:10.694Z,5.61
2022-10-05T03:41:59.620Z,5.69
2022-10-05T03:44:51.602Z,5.78
2022-10-05T03:47:41.192Z,5.80
2022-10-05T03:50:35.068Z,5.82
2022-10-05T03:53:21.535Z,5.69
2022-10-05T03:56:12.566Z,5.80
2022-10-05T03:59:01.014Z,5.72
2022-10-05T04:01:51.019Z,5.75
2022-10-05T04:04:39.781Z,5.80
2022-10-05T04:07:42.860Z,5.78
2022-10-05T04:10:28.856Z,5.80
2022-10-05T04:13:16.675Z,5.78
2022-10-05T04:16:04.306Z,5.76
2022-10-05T04:18:54.987Z,5.77
2022-10-05T04:21:42.545Z,5.71
2022-10-05T04:24:34.256Z,5.76
2022-10-05T04:27:20.563Z,5.73
2022-10-05T04:30:08.238Z,5.74
2022-10-05T04:32:55.292Z,5.62
2022-10-05T04:36:06.354Z,5.64
2022-10-05T04:39:00.842Z,5.62
2022-10-05T04:41:57.038Z,5.62
2022-10-05T04:44:59.093Z,5.57
2022-10-05T04:48:24.848Z,5.66
2022-10-05T04:51:26.904Z,5.67
2022-10-05T04:54:23.563Z,5.67
2022-10-05T04:57:12.310Z,5.93
2022-10-05T05:00:06.277Z,6.15
2022-10-05T05:03:12.866Z,6.34
2022-10-05T05:06:17.039Z,6.31
2022-10-05T05:09:19.246Z,6.29
2022-10-05T05:12:12.532Z,6.29
2022-10-05T05:15:18.131Z,6.30
2022-10-05T05:18:23.871Z,6.34
2022-10-05T05:21:17.995Z,6.44
2022-10-05T05:24:10.621Z,6.49
2022-10-05T05:27:06.308Z,6.65
2022-10-05T05:30:02.980Z,6.73
2022-10-05T05:32:59.194Z,7.00
2022-10-05T05:36:04.864Z,7.15
2022-10-05T05:38:56.286Z,7.33
2022-10-05T05:41:49.650Z,7.56
2022-10-05T05:44:38.959Z,7.68
2022-10-05T05:47:28.338Z,7.85
2022-10-05T05:50:28.052Z,8.15
2022-10-05T05:53:17.018Z,8.46
2022-10-05T05:56:07.944Z,8.68
2022-10-05T05:58:56.999Z,9.09
2022-10-05T06:01:45.086Z,8.80
2022-10-05T06:04:32.876Z,9.23
2022-10-05T06:07:20.966Z,9.50
2022-10-05T06:10:26.483Z,9.47
2022-10-05T06:13:17.569Z,10.05
2022-10-05T06:16:10.056Z,10.30
2022-10-05T06:18:57.138Z,10.71
2022-10-05T06:21:45.613Z,11.39
2022-10-05T06:24:33.360Z,13.87
2022-10-05T06:27:26.650Z,16.82
2022-10-05T06:30:13.428Z,19.72
2022-10-05T06:33:13.138Z,21.22
2022-10-05T06:36:13.182Z,23.21
2022-10-05T06:39:14.062Z,23.87
2022-10-05T06:42:17.372Z,25.17
2022-10-05T06:45:06.082Z,25.04
2022-10-05T06:47:56.024Z,22.84
2022-10-05T06:50:45.927Z,25.09
2022-10-05T06:53:35.814Z,25.85
2022-10-05T06:56:26.746Z,29.04
2022-10-05T06:59:15.818Z,26.81
2022-10-05T07:02:10.377Z,26.25
2022-10-05T07:05:12.398Z,27.93
2022-10-05T07:08:00.165Z,27.29
2022-10-05T07:10:57.968Z,27.88
2022-10-05T07:13:54.577Z,26.81
2022-10-05T07:16:48.834Z,26.77
2022-10-05T07:19:40.236Z,27.42
2022-10-05T07:22:47.867Z,31.17
2022-10-05T07:25:38.364Z,32.56
2022-10-05T07:28:32.284Z,30.49
2022-10-05T07:31:23.143Z,33.73
2022-10-05T07:34:10.991Z,33.50
2022-10-05T07:37:20.334Z,35.10
2022-10-05T07:40:11.789Z,36.36
2022-10-05T07:43:14.529Z,33.31
2022-10-05T07:46:08.223Z,33.47
2022-10-05T07:49:03.937Z,36.02
2022-10-05T07:51:49.657Z,34.12
2022-10-05T07:54:42.149Z,34.58
2022-10-05T07:57:33.184Z,34.98
2022-10-05T08:00:21.421Z,33.74
2022-10-05T08:03:12.257Z,34.72
2022-10-05T08:05:56.242Z,35.01
2022-10-05T08:08:47.422Z,36.09
2022-10-05T08:11:37.807Z,37.08
2022-10-05T08:14:29.837Z,41.29
2022-10-05T08:17:25.735Z,37.82
2022-10-05T08:20:30.479Z,37.61
2022-10-05T08:23:25.243Z,40.57
2022-10-05T08:26:18.225Z,41.14
2022-10-05T08:29:14.125Z,43.31
2022-10-05T08:32:02.123Z,40.32
2022-10-05T08:34:52.679Z,39.30
2022-10-05T08:37:41.233Z,39.87
2022-10-05T08:41:00.142Z,38.81
2022-10-05T08:44:23.148Z,42.29
2022-10-05T08:47:22.723Z,38.98
2022-10-05T08:50:28.225Z,38.25
2022-10-05T08:53:21.990Z,37.58
2022-10-05T08:56:30.525Z,42.73
2022-10-05T08:59:50.373Z,43.02
2022-10-05T09:02:51.788Z,40.74
2022-10-05T09:06:08.487Z,37.85
2022-10-05T09:09:19.137Z,39.90
2022-10-05T09:12:23.491Z,39.20
2022-10-05T09:15:28.153Z,43.36
2022-10-05T09:18:55.886Z,44.65
2022-10-05T09:21:45.056Z,43.23
2022-10-05T09:24:29.984Z,43.47
2022-10-05T09:27:17.085Z,38.58
2022-10-05T09:30:18.564Z,40.72
2022-10-05T09:33:42.914Z,38.84
2022-10-05T09:36:50.323Z,42.31
2022-10-05T09:40:35.846Z,39.94
2022-10-05T09:44:07.391Z,37.37
2022-10-05T09:47:13.388Z,37.29
2022-10-05T09:50:17.629Z,39.08
2022-10-05T09:53:25.801Z,41.50
2022-10-05T09:56:23.267Z,45.71
2022-10-05T09:59:38.578Z,44.93
2022-10-05T10:02:32.106Z,41.14
2022-10-05T10:05:32.997Z,41.36
2022-10-05T10:08:34.144Z,43.59
2022-10-05T10:11:38.474Z,41.45
2022-10-05T10:14:53.873Z,39.16
2022-10-05T10:17:56.698Z,40.26
2022-10-05T10:20:57.377Z,44.31
2022-10-05T10:24:00.227Z,43.15
2022-10-05T10:27:05.777Z,40.29
2022-10-05T10:30:19.755Z,43.98
2022-10-05T10:33:19.366Z,44.96
2022-10-05T10:36:13.080Z,43.95
2022-10-05T10:39:01.698Z,43.85
2022-10-05T10:42:22.549Z,38.61
2022-10-05T10:45:40.183Z,40.60
2022-10-05T10:48:58.946Z,40.28
2022-10-05T10:52:24.776Z,42.54
2022-10-05T10:55:31.422Z,44.07
2022-10-05T10:58:47.060Z,44.00
2022-10-05T11:01:36.670Z,44.81
2022-10-05T11:04:40.300Z,40.48
2022-10-05T11:07:46.765Z,40.71
2022-10-05T11:10:51.101Z,38.72
2022-10-05T11:14:02.675Z,39.37
2022-10-05T11:17:29.416Z,40.18
2022-10-05T11:20:40.698Z,42.38
2022-10-05T11:23:44.507Z,38.03
2022-10-05T11:26:48.863Z,32.94
2022-10-05T11:29:51.507Z,29.09
2022-10-05T11:33:02.596Z,28.13
2022-10-05T11:36:24.092Z,26.28
2022-10-05T11:39:36.969Z,23.90
2022-10-05T11:42:49.686Z,22.83
2022-10-05T11:45:49.123Z,21.92
2022-10-05T11:49:00.440Z,21.49
2022-10-05T11:51:57.497Z,20.53
2022-10-05T11:55:19.363Z,19.47
2022-10-05T11:58:07.553Z,19.63
2022-10-05T12:00:57.955Z,19.38
2022-10-05T12:03:56.366Z,19.13
2022-10-05T12:06:54.796Z,18.67
2022-10-05T12:10:05.564Z,18.77
2022-10-05T12:13:11.731Z,19.00
2022-10-05T12:15:59.124Z,18.92
2022-10-05T12:18:50.252Z,18.90
2022-10-05T12:21:38.216Z,18.38
2022-10-05T12:24:28.251Z,18.29
2022-10-05T12:27:16.226Z,18.31
2022-10-05T12:30:04.879Z,18.32
2022-10-05T12:33:02.197Z,18.40
2022-10-05T12:35:51.062Z,18.41
2022-10-05T12:38:38.280Z,18.59
2022-10-05T12:41:28.658Z,18.33
2022-10-05T12:44:20.762Z,18.36
2022-10-05T12:47:13.683Z,18.23
2022-10-05T12:50:05.114Z,18.23
2022-10-05T12:53:02.933Z,18.18
2022-10-05T12:55:54.595Z,18.08
2022-10-05T12:58:47.261Z,18.08
2022-10-05T13:01:38.409Z,17.99
2022-10-05T13:04:32.323Z,18.11
2022-10-05T13:07:42.889Z,18.02
2022-10-05T13:10:36.269Z,18.04
2022-10-05T13:13:38.631Z,18.13
2022-10-05T13:16:31.953Z,18.06
2022-10-05T13:19:30.720Z,17.73
2022-10-05T13:22:31.339Z,17.84
2022-10-05T13:25:27.211Z,17.81
2022-10-05T13:28:17.200Z,17.63
2022-10-05T13:31:06.053Z,17.53
2022-10-05T13:33:59.376Z,17.39
2022-10-05T13:36:52.469Z,17.46
2022-10-05T13:39:52.099Z,17.37
2022-10-05T13:42:40.839Z,17.13
2022-10-05T13:45:29.857Z,17.13
2022-10-05T13:48:24.815Z,17.04
2022-10-05T13:51:12.978Z,17.22
2022-10-05T13:54:04.858Z,17.18
2022-10-05T13:56:54.002Z,17.19
2022-10-05T13:59:44.590Z,17.08
2022-10-05T14:02:31.536Z,16.81
2022-10-05T14:05:20.493Z,16.88
2022-10-05T14:08:18.365Z,17.03
2022-10-05T14:11:21.306Z,17.04
2022-10-05T14:14:13.937Z,16.99
2022-10-05T14:16:58.817Z,16.92
2022-10-05T14:19:46.324Z,16.91
2022-10-05T14:22:29.528Z,16.78
2022-10-05T14:25:19.620Z,16.78
2022-10-05T14:28:05.391Z,16.87
2022-10-05T14:30:59.472Z,16.92
2022-10-05T14:33:43.271Z,16.84
2022-10-05T14:36:40.206Z,16.85
2022-10-05T14:39:26.368Z,16.77
2022-10-05T14:42:19.089Z,16.79
2022-10-05T14:45:14.130Z,16.87
2022-10-05T14:48:11.100Z,16.80
2022-10-05T14:50:56.568Z,16.89
2022-10-05T14:53:43.423Z,16.86
2022-10-05T14:56:42.869Z,16.73
2022-10-05T14:59:36.606Z,16.57
2022-10-05T15:02:42.416Z,16.41
2022-10-05T15:05:32.585Z,16.46
2022-10-05T15:08:39.101Z,16.23
2022-10-05T15:11:34.538Z,16.26
2022-10-05T15:14:21.304Z,16.18
2022-10-05T15:17:13.610Z,16.19
2022-10-05T15:20:06.403Z,16.14
2022-10-05T15:22:55.529Z,15.91
2022-10-05T15:25:46.802Z,15.91
2022-10-05T15:28:37.975Z,15.77
2022-10-05T15:31:28.238Z,15.74
2022-10-05T15:34:17.671Z,15.68
2022-10-05T15:37:10.102Z,15.55
2022-10-05T15:39:57.572Z,15.35
2022-10-05T15:42:43.214Z,15.25
2022-10-05T15:45:32.378Z,15.17
2022-10-05T15:48:21.204Z,15.08
2022-10-05T15:51:15.311Z,14.96
2022-10-05T15:54:22.919Z,14.77
2022-10-05T15:57:12.546Z,14.60
2022-10-05T16:00:02.079Z,14.44
2022-10-05T16:02:53.249Z,14.36
2022-10-05T16:06:02.448Z,14.29
2022-10-05T16:08:59.888Z,14.30
2022-10-05T16:12:02.891Z,14.19
2022-10-05T16:14:58.290Z,14.01
2022-10-05T16:17:59.826Z,13.96
2022-10-05T16:20:51.456Z,13.91
2022-10-05T16:23:45.509Z,13.86
2022-10-05T16:26:41.093Z,13.75
2022-10-05T16:29:34.375Z,13.72
2022-10-05T16:32:20.348Z,13.67
2022-10-05T16:35:18.157Z,13.57
2022-10-05T16:38:14.862Z,13.54
2022-10-05T16:41:04.966Z,13.47
2022-10-05T16:43:53.795Z,13.42
2022-10-05T16:46:44.806Z,13.39
2022-10-05T16:49:38.335Z,13.32
2022-10-05T16:52:24.572Z,13.20
2022-10-05T16:55:14.139Z,13.05
2022-10-05T16:57:58.146Z,12.99
2022-10-05T17:00:53.093Z,12.89
2022-10-05T17:03:51.773Z,12.75
2022-10-05T17:07:01.794Z,12.56
2022-10-05T17:09:59.442Z,12.46
2022-10-05T17:12:57.822Z,12.35
2022-10-05T17:16:00.833Z,12.17
2022-10-05T17:19:11.257Z,12.02
2022-10-05T17:22:00.826Z,11.84
2022-10-05T17:24:55.801Z,11.73
2022-10-05T17:27:53.070Z,11.65
2022-10-05T17:30:50.460Z,11.54
2022-10-05T17:33:34.979Z,11.42
2022-10-05T17:36:19.921Z,11.40
2022-10-05T17:39:16.022Z,11.37
2022-10-05T17:42:48.578Z,11.31
2022-10-05T17:45:54.930Z,11.25
2022-10-05T17:49:02.447Z,11.18
2022-10-05T17:52:21.897Z,11.15
2022-10-05T17:55:30.599Z,11.08
2022-10-05T17:58:54.581Z,10.96
2022-10-05T18:01:40.756Z,10.88
2022-10-05T18:04:44.969Z,10.89
2022-10-05T18:07:28.711Z,10.86
2022-10-05T18:10:28.930Z,10.84
2022-10-05T18:13:35.216Z,10.74
2022-10-05T18:16:51.447Z,10.69
2022-10-05T18:19:37.686Z,10.66
2022-10-05T18:22:30.359Z,10.66
2022-10-05T18:25:27.264Z,10.66
2022-10-05T18:28:26.687Z,10.56
2022-10-05T18:31:25.865Z,10.53
2022-10-05T18:34:27.363Z,10.44
2022-10-05T18:37:29.662Z,10.42
2022-10-05T18:40:27.856Z,10.30
2022-10-05T18:43:26.607Z,10.34
2022-10-05T18:46:31.652Z,10.30
2022-10-05T18:49:32.795Z,10.23
2022-10-05T18:52:26.816Z,10.14
2022-10-05T18:55:20.214Z,10.10
2022-10-05T18:58:17.884Z,10.04
2022-10-05T19:01:18.751Z,10.09
2022-10-05T19:04:15.813Z,10.08
2022-10-05T19:07:14.233Z,10.07
2022-10-05T19:10:09.919Z,10.02
2022-10-05T19:13:06.813Z,9.98
2022-10-05T19:15:59.880Z,10.00
2022-10-05T19:18:55.427Z,9.89
2022-10-05T19:21:47.863Z,9.81
2022-10-05T19:24:42.606Z,9.81
2022-10-05T19:27:36.052Z,9.79
2022-10-05T19:30:25.182Z,9.77
2022-10-05T19:33:26.671Z,9.65
2022-10-05T19:36:25.600Z,9.60
2022-10-05T19:39:12.993Z,9.53
2022-10-05T19:42:15.464Z,9.55
2022-10-05T19:45:11.725Z,9.53
2022-10-05T19:48:08.589Z,9.50
2022-10-05T19:50:55.843Z,9.46
2022-10-05T19:53:46.006Z,9.43
2022-10-05T19:56:33.700Z,9.43
2022-10-05T19:59:20.778Z,9.33
2022-10-05T20:02:05.231Z,9.26
2022-10-05T20:04:49.627Z,9.26
2022-10-05T20:07:34.452Z,9.25
2022-10-05T20:10:29.076Z,9.24
2022-10-05T20:13:20.802Z,9.28
2022-10-05T20:16:40.100Z,9.26
2022-10-05T20:19:50.286Z,9.36
2022-10-05T20:22:35.362Z,9.16
2022-10-05T20:25:32.690Z,9.15
2022-10-05T20:28:31.737Z,9.13
2022-10-05T20:31:17.516Z,9.13
2022-10-05T20:34:00.752Z,9.04
2022-10-05T20:36:46.095Z,9.14
2022-10-05T20:39:30.561Z,9.01
2022-10-05T20:42:14.134Z,8.97
2022-10-05T20:44:58.058Z,8.96
2022-10-05T20:47:42.265Z,8.91
2022-10-05T20:50:25.330Z,8.87
2022-10-05T20:53:12.146Z,8.89
2022-10-05T20:56:02.478Z,8.78
2022-10-05T20:58:45.608Z,8.71
2022-10-05T21:01:29.970Z,8.69
2022-10-05T21:04:13.026Z,8.68
2022-10-05T21:06:56.046Z,8.65
2022-10-05T21:09:42.358Z,8.62
2022-10-05T21:12:25.459Z,8.61
2022-10-05T21:15:10.376Z,8.58
2022-10-05T21:17:56.011Z,8.59
2022-10-05T21:20:38.966Z,8.56
2022-10-05T21:23:21.999Z,8.47
2022-10-05T21:26:07.427Z,8.52
2022-10-05T21:28:50.586Z,8.52
2022-10-05T21:31:33.734Z,8.52
2022-10-05T21:34:16.840Z,8.50
2022-10-05T21:36:59.836Z,8.44
2022-10-05T21:39:42.861Z,8.45
2022-10-05T21:42:27.752Z,8.48
2022-10-05T21:45:11.554Z,8.45
2022-10-05T21:47:54.707Z,8.55
2022-10-05T21:50:39.258Z,8.55
2022-10-05T21:53:26.738Z,8.52
2022-10-05T21:56:13.917Z,8.45
2022-10-05T21:58:59.061Z,8.43
2022-10-05T22:01:42.090Z,8.35
2022-10-05T22:04:25.249Z,8.36
2022-10-05T22:07:18.480Z,8.35
2022-10-05T22:10:01.915Z,8.36
2022-10-05T22:12:46.885Z,8.30
2022-10-05T22:15:32.710Z,8.30
2022-10-05T22:18:19.058Z,8.34
2022-10-05T22:21:02.068Z,8.28
2022-10-05T22:23:47.043Z,8.24
2022-10-05T22:26:30.191Z,8.25
2022-10-05T22:29:13.379Z,8.23
2022-10-05T22:31:58.090Z,8.29
2022-10-05T22:34:41.140Z,8.19
2022-10-05T22:37:24.137Z,8.10
2022-10-05T22:40:11.218Z,8.01
2022-10-05T22:42:54.313Z,8.08
2022-10-05T22:45:37.412Z,8.08
2022-10-05T22:48:22.135Z,8.06
2022-10-05T22:51:05.279Z,8.03
2022-10-05T22:53:48.273Z,8.02
2022-10-05T22:56:31.265Z,7.99
2022-10-05T22:59:14.394Z,8.02
2022-10-05T23:01:57.514Z,7.98
2022-10-05T23:04:42.153Z,7.98
2022-10-05T23:07:25.177Z,8.00
2022-10-05T23:10:10.633Z,8.01
2022-10-05T23:13:00.829Z,8.04
2022-10-05T23:15:44.992Z,7.99
2022-10-05T23:18:28.320Z,7.90
2022-10-05T23:21:12.864Z,7.91
2022-10-05T23:23:56.009Z,7.90
2022-10-05T23:26:39.000Z,7.81
2022-10-05T23:29:21.999Z,7.82
2022-10-05T23:32:05.743Z,7.81
2022-10-05T23:34:48.753Z,7.80
2022-10-05T23:37:33.641Z,7.86
2022-10-05T23:40:16.716Z,7.81
2022-10-05T23:43:00.929Z,7.77
2022-10-05T23:45:45.434Z,7.67
2022-10-05T23:48:29.731Z,7.59
2022-10-05T23:51:15.599Z,7.58
2022-10-05T23:54:00.029Z,7.49
2022-10-05T23:56:43.250Z,7.45
2022-10-05T23:59:26.283Z,7.46
